CMB56 MUGM-KADW
Flight info
| Callsign | CMB56 |
|---|---|
| Flight time | N/A |
| Altitude | 39000 |
| Route | GTMOD7 BYGON DCT KNSLY/N0479F400 A756 DUKKY DCT WEDER Y374 NUCAR/N0481F390 AR3 GARIC Q107 ALINN DCT CIBAC VUDOO2 |
| Aircraft | B762/H-SDE1E2E3FGHIJ2J3J4J5M1RWXY/LB1D1 |
Departure
| Time | N/A |
|---|---|
| Airport | Leeward Point Field (MUGM) |
Arrival
| Time | 2026-04-23 02:17 |
|---|---|
| Airport | Joint Base Andrews (KADW) |
| Time | Latitude | Longitude | Altitude | Speed | Heading |
|---|---|---|---|---|---|
| 2026-04-22 23:43 | 22.00855 | -74.30402 | 39083 ft | 437 kts | 323° |
| 2026-04-22 23:43 | 22.03510 | -74.32003 | 39081 ft | 437 kts | 323° |
| 2026-04-22 23:44 | 22.08778 | -74.35182 | 39084 ft | 437 kts | 323° |
| 2026-04-22 23:44 | 22.14081 | -74.38383 | 39084 ft | 437 kts | 323° |
| 2026-04-22 23:45 | 22.19380 | -74.41586 | 39094 ft | 437 kts | 323° |
| 2026-04-22 23:45 | 22.24676 | -74.44788 | 39092 ft | 436 kts | 323° |
| 2026-04-22 23:46 | 22.29929 | -74.47968 | 39092 ft | 436 kts | 323° |
| 2026-04-22 23:46 | 22.35214 | -74.51171 | 39099 ft | 435 kts | 323° |
| 2026-04-22 23:47 | 22.40490 | -74.54370 | 39106 ft | 435 kts | 323° |
| 2026-04-22 23:47 | 22.45762 | -74.57568 | 39111 ft | 435 kts | 323° |
| 2026-04-22 23:48 | 22.50995 | -74.60748 | 39113 ft | 434 kts | 323° |
| 2026-04-22 23:48 | 22.56256 | -74.63949 | 39110 ft | 434 kts | 323° |
| 2026-04-22 23:49 | 22.61515 | -74.67148 | 39114 ft | 433 kts | 323° |
| 2026-04-22 23:49 | 22.66764 | -74.70347 | 39121 ft | 433 kts | 323° |
| 2026-04-22 23:50 | 22.72009 | -74.73539 | 39118 ft | 432 kts | 323° |
| 2026-04-22 23:50 | 22.77218 | -74.76715 | 39127 ft | 432 kts | 323° |
| 2026-04-22 23:51 | 22.82458 | -74.79912 | 39122 ft | 432 kts | 323° |
| 2026-04-22 23:51 | 22.87688 | -74.83105 | 39133 ft | 431 kts | 323° |
| 2026-04-22 23:52 | 22.92917 | -74.86301 | 39129 ft | 431 kts | 323° |
| 2026-04-22 23:52 | 22.98105 | -74.89477 | 39129 ft | 431 kts | 323° |
| 2026-04-22 23:53 | 23.03321 | -74.92671 | 39128 ft | 430 kts | 322° |
| 2026-04-22 23:53 | 23.08532 | -74.95866 | 39141 ft | 430 kts | 323° |
| 2026-04-22 23:54 | 23.13737 | -74.99060 | 39138 ft | 429 kts | 322° |
| 2026-04-22 23:54 | 23.18900 | -75.02227 | 39140 ft | 429 kts | 322° |
| 2026-04-22 23:55 | 23.24090 | -75.05419 | 39142 ft | 428 kts | 322° |
| 2026-04-22 23:55 | 23.29272 | -75.08608 | 39140 ft | 428 kts | 322° |
| 2026-04-22 23:56 | 23.34450 | -75.11796 | 39140 ft | 427 kts | 322° |
| 2026-04-22 23:56 | 23.39587 | -75.14962 | 39147 ft | 427 kts | 322° |
| 2026-04-22 23:57 | 23.44755 | -75.18151 | 39148 ft | 427 kts | 322° |
| 2026-04-22 23:57 | 23.49923 | -75.21342 | 39153 ft | 427 kts | 322° |
| 2026-04-22 23:58 | 23.55090 | -75.24535 | 39148 ft | 427 kts | 322° |
| 2026-04-22 23:58 | 23.60210 | -75.27732 | 39147 ft | 426 kts | 321° |
| 2026-04-22 23:59 | 23.65286 | -75.31041 | 39150 ft | 425 kts | 321° |
| 2026-04-22 23:59 | 23.70347 | -75.34361 | 39146 ft | 424 kts | 321° |
| 2026-04-23 00:00 | 23.77893 | -75.39291 | 39147 ft | 423 kts | 321° |
| 2026-04-23 00:01 | 23.82945 | -75.42592 | 39149 ft | 423 kts | 321° |
| 2026-04-23 00:01 | 23.87991 | -75.45891 | 39149 ft | 423 kts | 321° |
| 2026-04-23 00:02 | 23.93039 | -75.49196 | 39146 ft | 423 kts | 321° |
| 2026-04-23 00:02 | 23.98057 | -75.52471 | 39149 ft | 424 kts | 322° |
| 2026-04-23 00:03 | 24.03411 | -75.55312 | 39150 ft | 430 kts | 327° |
| 2026-04-23 00:03 | 24.08866 | -75.57953 | 39150 ft | 429 kts | 327° |
| 2026-04-23 00:04 | 24.14338 | -75.60617 | 39156 ft | 429 kts | 327° |
| 2026-04-23 00:04 | 24.19789 | -75.63284 | 39158 ft | 429 kts | 327° |
| 2026-04-23 00:05 | 24.25195 | -75.65938 | 39157 ft | 429 kts | 327° |
| 2026-04-23 00:05 | 24.30637 | -75.68614 | 39159 ft | 428 kts | 327° |
| 2026-04-23 00:06 | 24.36075 | -75.71294 | 39157 ft | 429 kts | 327° |
| 2026-04-23 00:06 | 24.41513 | -75.73972 | 39159 ft | 429 kts | 327° |
| 2026-04-23 00:07 | 24.46959 | -75.76658 | 39158 ft | 429 kts | 327° |
| 2026-04-23 00:07 | 24.52371 | -75.79330 | 39155 ft | 430 kts | 327° |
| 2026-04-23 00:08 | 24.57826 | -75.82024 | 39153 ft | 430 kts | 327° |
| 2026-04-23 00:08 | 24.63287 | -75.84726 | 39165 ft | 431 kts | 327° |
| 2026-04-23 00:09 | 24.68759 | -75.87433 | 39167 ft | 431 kts | 327° |
| 2026-04-23 00:09 | 24.74198 | -75.90128 | 39166 ft | 432 kts | 327° |
| 2026-04-23 00:10 | 24.79672 | -75.92839 | 39166 ft | 432 kts | 327° |
| 2026-04-23 00:10 | 24.85148 | -75.95558 | 39166 ft | 431 kts | 326° |
| 2026-04-23 00:11 | 24.90618 | -75.98277 | 39166 ft | 431 kts | 326° |
| 2026-04-23 00:11 | 24.96040 | -76.00973 | 39167 ft | 430 kts | 326° |
| 2026-04-23 00:12 | 25.01489 | -76.03687 | 39166 ft | 430 kts | 326° |
| 2026-04-23 00:12 | 25.06945 | -76.06407 | 39168 ft | 430 kts | 326° |
| 2026-04-23 00:13 | 25.12399 | -76.09128 | 39176 ft | 430 kts | 326° |
| 2026-04-23 00:13 | 25.17818 | -76.11833 | 39176 ft | 430 kts | 326° |
| 2026-04-23 00:14 | 25.23267 | -76.14558 | 39175 ft | 430 kts | 326° |
| 2026-04-23 00:14 | 25.28711 | -76.17282 | 39175 ft | 430 kts | 326° |
| 2026-04-23 00:15 | 25.34154 | -76.20009 | 39175 ft | 430 kts | 326° |
| 2026-04-23 00:15 | 25.39558 | -76.22717 | 39176 ft | 429 kts | 326° |
| 2026-04-23 00:16 | 25.44994 | -76.25445 | 39176 ft | 429 kts | 326° |
| 2026-04-23 00:16 | 25.50432 | -76.28176 | 39176 ft | 429 kts | 326° |
| 2026-04-23 00:17 | 25.55870 | -76.30910 | 39175 ft | 429 kts | 326° |
| 2026-04-23 00:17 | 25.61308 | -76.33648 | 39176 ft | 429 kts | 326° |
| 2026-04-23 00:18 | 25.66708 | -76.36370 | 39174 ft | 430 kts | 326° |
| 2026-04-23 00:18 | 25.72152 | -76.39114 | 39175 ft | 430 kts | 326° |
| 2026-04-23 00:19 | 25.77589 | -76.41860 | 39175 ft | 429 kts | 326° |
| 2026-04-23 00:19 | 25.83024 | -76.44609 | 39174 ft | 429 kts | 326° |
| 2026-04-23 00:20 | 25.88457 | -76.47355 | 39174 ft | 429 kts | 326° |
| 2026-04-23 00:20 | 25.93849 | -76.50082 | 39175 ft | 428 kts | 326° |
| 2026-04-23 00:21 | 25.99268 | -76.52830 | 39175 ft | 428 kts | 326° |
| 2026-04-23 00:21 | 26.04684 | -76.55578 | 39174 ft | 428 kts | 326° |
| 2026-04-23 00:22 | 26.10106 | -76.58333 | 39177 ft | 429 kts | 326° |
| 2026-04-23 00:22 | 26.15502 | -76.61078 | 39176 ft | 430 kts | 326° |
| 2026-04-23 00:23 | 26.20942 | -76.63847 | 39174 ft | 430 kts | 326° |
| 2026-04-23 00:23 | 26.26384 | -76.66619 | 39176 ft | 430 kts | 326° |
| 2026-04-23 00:24 | 26.31824 | -76.69394 | 39175 ft | 430 kts | 326° |
| 2026-04-23 00:24 | 26.37260 | -76.72171 | 39177 ft | 430 kts | 326° |
| 2026-04-23 00:25 | 26.42663 | -76.74931 | 39175 ft | 430 kts | 326° |
| 2026-04-23 00:25 | 26.48106 | -76.77715 | 39175 ft | 430 kts | 326° |
| 2026-04-23 00:26 | 26.53548 | -76.80502 | 39176 ft | 431 kts | 326° |
| 2026-04-23 00:26 | 26.58962 | -76.83278 | 39175 ft | 431 kts | 326° |
| 2026-04-23 00:27 | 26.64412 | -76.86074 | 39176 ft | 431 kts | 326° |
| 2026-04-23 00:27 | 26.69866 | -76.88876 | 39175 ft | 431 kts | 326° |
| 2026-04-23 00:28 | 26.75317 | -76.91679 | 39175 ft | 432 kts | 326° |
| 2026-04-23 00:28 | 26.80776 | -76.94489 | 39182 ft | 432 kts | 326° |
| 2026-04-23 00:29 | 26.86195 | -76.97283 | 39181 ft | 432 kts | 326° |
| 2026-04-23 00:29 | 26.91653 | -77.00100 | 39187 ft | 432 kts | 326° |
| 2026-04-23 00:30 | 26.97115 | -77.02923 | 39176 ft | 432 kts | 326° |
| 2026-04-23 00:30 | 27.02579 | -77.05747 | 39176 ft | 433 kts | 327° |
| 2026-04-23 00:31 | 27.08012 | -77.08559 | 39176 ft | 433 kts | 327° |
| 2026-04-23 00:31 | 27.13479 | -77.11392 | 39174 ft | 433 kts | 327° |
| 2026-04-23 00:32 | 27.18949 | -77.14229 | 39177 ft | 433 kts | 327° |
| 2026-04-23 00:32 | 27.24427 | -77.17074 | 39178 ft | 434 kts | 327° |
| 2026-04-23 00:33 | 27.29867 | -77.19902 | 39200 ft | 434 kts | 327° |
| 2026-04-23 00:33 | 27.35349 | -77.22755 | 39182 ft | 434 kts | 327° |
| 2026-04-23 00:34 | 27.40826 | -77.25608 | 39182 ft | 434 kts | 327° |
| 2026-04-23 00:34 | 27.46309 | -77.28468 | 39181 ft | 434 kts | 327° |
| 2026-04-23 00:35 | 27.51788 | -77.31328 | 39184 ft | 435 kts | 327° |
| 2026-04-23 00:35 | 27.57242 | -77.34180 | 39182 ft | 436 kts | 327° |
| 2026-04-23 00:36 | 27.62743 | -77.37060 | 39194 ft | 436 kts | 327° |
| 2026-04-23 00:36 | 27.68252 | -77.39946 | 39182 ft | 437 kts | 327° |
| 2026-04-23 00:37 | 27.73770 | -77.42838 | 39179 ft | 437 kts | 327° |
| 2026-04-23 00:37 | 27.79250 | -77.45716 | 39186 ft | 437 kts | 327° |
| 2026-04-23 00:38 | 27.84767 | -77.48617 | 39194 ft | 437 kts | 327° |
| 2026-04-23 00:38 | 27.90284 | -77.51520 | 39182 ft | 438 kts | 327° |
| 2026-04-23 00:39 | 27.95807 | -77.54431 | 39183 ft | 438 kts | 327° |
| 2026-04-23 00:39 | 28.01285 | -77.57321 | 39183 ft | 437 kts | 327° |
| 2026-04-23 00:40 | 28.06801 | -77.60233 | 39175 ft | 438 kts | 327° |
| 2026-04-23 00:40 | 28.12590 | -77.62605 | 39177 ft | 449 kts | 338° |
| 2026-04-23 00:41 | 28.18839 | -77.63726 | 39174 ft | 462 kts | 348° |
| 2026-04-23 00:41 | 28.25236 | -77.64040 | 39177 ft | 464 kts | 349° |
| 2026-04-23 00:42 | 28.31692 | -77.64295 | 39177 ft | 464 kts | 349° |
| 2026-04-23 00:42 | 28.38156 | -77.64586 | 39195 ft | 468 kts | 349° |
| 2026-04-23 00:43 | 28.44669 | -77.64911 | 39177 ft | 475 kts | 349° |
| 2026-04-23 00:43 | 28.51301 | -77.65251 | 39175 ft | 479 kts | 349° |
| 2026-04-23 00:44 | 28.57965 | -77.65587 | 39179 ft | 480 kts | 349° |
| 2026-04-23 00:44 | 28.64656 | -77.65922 | 39172 ft | 481 kts | 349° |
| 2026-04-23 00:45 | 28.71334 | -77.66256 | 39182 ft | 480 kts | 349° |
| 2026-04-23 00:45 | 28.77943 | -77.66588 | 39182 ft | 479 kts | 349° |
| 2026-04-23 00:46 | 28.84580 | -77.66922 | 39183 ft | 477 kts | 349° |
| 2026-04-23 00:46 | 28.91210 | -77.67259 | 39184 ft | 476 kts | 349° |
| 2026-04-23 00:47 | 28.97823 | -77.67598 | 39180 ft | 476 kts | 349° |
| 2026-04-23 00:47 | 29.04397 | -77.67933 | 39182 ft | 476 kts | 349° |
| 2026-04-23 00:48 | 29.11005 | -77.68270 | 39186 ft | 476 kts | 349° |
| 2026-04-23 00:48 | 29.17624 | -77.68607 | 39183 ft | 476 kts | 349° |
| 2026-04-23 00:49 | 29.24241 | -77.68944 | 39182 ft | 476 kts | 349° |
| 2026-04-23 00:49 | 29.30814 | -77.69281 | 39183 ft | 476 kts | 349° |
| 2026-04-23 00:50 | 29.37439 | -77.69620 | 39182 ft | 477 kts | 349° |
| 2026-04-23 00:50 | 29.44072 | -77.69960 | 39176 ft | 477 kts | 349° |
| 2026-04-23 00:51 | 29.50703 | -77.70301 | 39175 ft | 477 kts | 349° |
| 2026-04-23 00:51 | 29.57284 | -77.70642 | 39175 ft | 477 kts | 349° |
| 2026-04-23 00:52 | 29.63925 | -77.70986 | 39172 ft | 478 kts | 349° |
| 2026-04-23 00:52 | 29.70573 | -77.71332 | 39177 ft | 478 kts | 349° |
| 2026-04-23 00:53 | 29.77217 | -77.71677 | 39175 ft | 478 kts | 349° |
| 2026-04-23 00:53 | 29.83865 | -77.72023 | 39175 ft | 478 kts | 349° |
| 2026-04-23 00:54 | 29.90473 | -77.72369 | 39174 ft | 479 kts | 349° |
| 2026-04-23 00:54 | 29.97129 | -77.72714 | 39172 ft | 479 kts | 349° |
| 2026-04-23 00:55 | 30.03784 | -77.73061 | 39165 ft | 479 kts | 349° |
| 2026-04-23 00:55 | 30.10444 | -77.73408 | 39167 ft | 479 kts | 349° |
| 2026-04-23 00:56 | 30.17072 | -77.73753 | 39165 ft | 479 kts | 349° |
| 2026-04-23 00:56 | 30.23725 | -77.74103 | 39167 ft | 479 kts | 349° |
| 2026-04-23 00:57 | 30.30382 | -77.74452 | 39169 ft | 478 kts | 349° |
| 2026-04-23 00:57 | 30.37024 | -77.74801 | 39166 ft | 478 kts | 349° |
| 2026-04-23 00:58 | 30.43653 | -77.75174 | 39164 ft | 476 kts | 349° |
| 2026-04-23 00:58 | 30.50219 | -77.75669 | 39165 ft | 475 kts | 348° |
| 2026-04-23 00:59 | 30.56820 | -77.76191 | 39168 ft | 476 kts | 348° |
| 2026-04-23 00:59 | 30.63427 | -77.76703 | 39166 ft | 476 kts | 349° |
| 2026-04-23 01:00 | 30.70031 | -77.77205 | 39166 ft | 476 kts | 349° |
| 2026-04-23 01:00 | 30.76587 | -77.77698 | 39170 ft | 475 kts | 349° |
| 2026-04-23 01:01 | 30.83189 | -77.78197 | 39165 ft | 476 kts | 349° |
| 2026-04-23 01:01 | 30.89789 | -77.78695 | 39168 ft | 476 kts | 349° |
| 2026-04-23 01:02 | 30.96392 | -77.79194 | 39174 ft | 475 kts | 349° |
| 2026-04-23 01:02 | 31.02951 | -77.79693 | 39176 ft | 475 kts | 349° |
| 2026-04-23 01:03 | 31.09547 | -77.80195 | 39174 ft | 475 kts | 350° |
| 2026-04-23 01:03 | 31.16138 | -77.80697 | 39172 ft | 475 kts | 350° |
| 2026-04-23 01:04 | 31.22729 | -77.81201 | 39177 ft | 475 kts | 350° |
| 2026-04-23 01:04 | 31.32569 | -77.81952 | 39166 ft | 475 kts | 350° |
| 2026-04-23 01:05 | 31.39160 | -77.82460 | 39165 ft | 474 kts | 350° |
| 2026-04-23 01:05 | 31.45749 | -77.82977 | 39166 ft | 474 kts | 351° |
| 2026-04-23 01:06 | 31.52336 | -77.83493 | 39166 ft | 474 kts | 351° |
| 2026-04-23 01:06 | 31.58874 | -77.84009 | 39166 ft | 474 kts | 351° |
| 2026-04-23 01:07 | 31.65461 | -77.84527 | 39164 ft | 474 kts | 351° |
| 2026-04-23 01:07 | 31.72048 | -77.85046 | 39172 ft | 474 kts | 351° |
| 2026-04-23 01:08 | 31.78629 | -77.85564 | 39178 ft | 474 kts | 351° |
| 2026-04-23 01:08 | 31.85159 | -77.86080 | 39176 ft | 474 kts | 351° |
| 2026-04-23 01:09 | 31.91743 | -77.86579 | 39175 ft | 474 kts | 352° |
| 2026-04-23 01:09 | 31.98339 | -77.86945 | 39175 ft | 475 kts | 352° |
| 2026-04-23 01:10 | 32.04938 | -77.87298 | 39169 ft | 475 kts | 352° |
| 2026-04-23 01:10 | 32.11537 | -77.87672 | 39161 ft | 475 kts | 352° |
| 2026-04-23 01:11 | 32.18096 | -77.88048 | 39156 ft | 475 kts | 352° |
| 2026-04-23 01:11 | 32.24695 | -77.88427 | 39156 ft | 475 kts | 352° |
| 2026-04-23 01:12 | 32.31291 | -77.88809 | 39161 ft | 474 kts | 352° |
| 2026-04-23 01:12 | 32.37888 | -77.89190 | 39167 ft | 474 kts | 352° |
| 2026-04-23 01:13 | 32.44440 | -77.89572 | 39165 ft | 474 kts | 352° |
| 2026-04-23 01:13 | 32.51026 | -77.89968 | 39167 ft | 474 kts | 352° |
| 2026-04-23 01:14 | 32.57603 | -77.90366 | 39169 ft | 473 kts | 352° |
| 2026-04-23 01:14 | 32.64177 | -77.90760 | 39168 ft | 472 kts | 352° |
| 2026-04-23 01:15 | 32.70692 | -77.91153 | 39165 ft | 472 kts | 352° |
| 2026-04-23 01:15 | 32.77239 | -77.91549 | 39167 ft | 471 kts | 352° |
| 2026-04-23 01:16 | 32.83779 | -77.91943 | 39167 ft | 470 kts | 352° |
| 2026-04-23 01:16 | 32.90306 | -77.92338 | 39166 ft | 469 kts | 352° |
| 2026-04-23 01:17 | 32.96817 | -77.92733 | 39165 ft | 468 kts | 352° |
| 2026-04-23 01:17 | 33.03273 | -77.93125 | 39166 ft | 467 kts | 352° |
| 2026-04-23 01:18 | 33.09759 | -77.93511 | 39166 ft | 466 kts | 352° |
| 2026-04-23 01:18 | 33.16236 | -77.93891 | 39167 ft | 466 kts | 352° |
| 2026-04-23 01:19 | 33.22704 | -77.94269 | 39166 ft | 465 kts | 352° |
| 2026-04-23 01:19 | 33.29159 | -77.94650 | 39167 ft | 464 kts | 352° |
| 2026-04-23 01:20 | 33.35561 | -77.95023 | 39166 ft | 463 kts | 353° |
| 2026-04-23 01:20 | 33.41999 | -77.95395 | 39166 ft | 463 kts | 353° |
| 2026-04-23 01:21 | 33.48427 | -77.95769 | 39166 ft | 462 kts | 353° |
| 2026-04-23 01:21 | 33.54855 | -77.96147 | 39167 ft | 462 kts | 353° |
| 2026-04-23 01:22 | 33.61269 | -77.96546 | 39166 ft | 461 kts | 352° |
| 2026-04-23 01:22 | 33.67675 | -77.96951 | 39165 ft | 461 kts | 353° |
| 2026-04-23 01:23 | 33.74030 | -77.97349 | 39166 ft | 460 kts | 353° |
| 2026-04-23 01:23 | 33.80425 | -77.97750 | 39169 ft | 460 kts | 353° |
| 2026-04-23 01:24 | 33.86825 | -77.98086 | 39168 ft | 462 kts | 356° |
| 2026-04-23 01:24 | 33.93215 | -77.97423 | 39175 ft | 466 kts | 3° |
| 2026-04-23 01:25 | 33.99636 | -77.96362 | 39168 ft | 466 kts | 3° |
| 2026-04-23 01:25 | 34.06068 | -77.95312 | 39167 ft | 466 kts | 3° |
| 2026-04-23 01:26 | 34.12496 | -77.94290 | 39163 ft | 466 kts | 2° |
| 2026-04-23 01:26 | 34.18932 | -77.93274 | 39157 ft | 467 kts | 2° |
| 2026-04-23 01:27 | 34.25328 | -77.92268 | 39155 ft | 467 kts | 2° |
| 2026-04-23 01:27 | 34.31767 | -77.91252 | 39156 ft | 466 kts | 2° |
| 2026-04-23 01:28 | 34.38198 | -77.90235 | 39157 ft | 466 kts | 2° |
| 2026-04-23 01:28 | 34.44624 | -77.89213 | 39158 ft | 466 kts | 3° |
| 2026-04-23 01:29 | 34.51008 | -77.88199 | 39147 ft | 466 kts | 3° |
| 2026-04-23 01:29 | 34.57423 | -77.87178 | 39151 ft | 465 kts | 3° |
| 2026-04-23 01:30 | 34.63845 | -77.86154 | 39141 ft | 465 kts | 3° |
| 2026-04-23 01:30 | 34.70255 | -77.85132 | 39135 ft | 464 kts | 3° |
| 2026-04-23 01:31 | 34.76654 | -77.84110 | 39136 ft | 463 kts | 3° |
| 2026-04-23 01:31 | 34.83044 | -77.83086 | 39137 ft | 463 kts | 3° |
| 2026-04-23 01:32 | 34.89353 | -77.81706 | 39133 ft | 467 kts | 11° |
| 2026-04-23 01:32 | 34.95609 | -77.79569 | 39129 ft | 467 kts | 11° |
| 2026-04-23 01:33 | 35.00799 | -77.77766 | 39128 ft | 466 kts | 11° |
| 2026-04-23 01:33 | 35.07036 | -77.75628 | 39129 ft | 465 kts | 11° |
| 2026-04-23 01:34 | 35.13272 | -77.73510 | 39119 ft | 464 kts | 11° |
| 2026-04-23 01:34 | 35.19490 | -77.71397 | 39112 ft | 463 kts | 11° |
| 2026-04-23 01:35 | 35.25692 | -77.69286 | 39108 ft | 462 kts | 11° |
| 2026-04-23 01:35 | 35.31834 | -77.67194 | 39102 ft | 461 kts | 11° |
| 2026-04-23 01:36 | 35.38009 | -77.65088 | 39101 ft | 460 kts | 11° |
| 2026-04-23 01:36 | 35.44171 | -77.62982 | 39101 ft | 459 kts | 11° |
| 2026-04-23 01:37 | 35.50327 | -77.60871 | 39102 ft | 459 kts | 11° |
| 2026-04-23 01:37 | 35.56433 | -77.58776 | 39101 ft | 458 kts | 11° |
| 2026-04-23 01:38 | 35.62573 | -77.56667 | 39101 ft | 458 kts | 11° |
| 2026-04-23 01:38 | 35.68712 | -77.54554 | 39102 ft | 458 kts | 11° |
| 2026-04-23 01:39 | 35.74823 | -77.52317 | 39084 ft | 458 kts | 14° |
| 2026-04-23 01:39 | 35.77802 | -77.51004 | 38804 ft | 451 kts | 16° |
| 2026-04-23 01:39 | 35.80712 | -77.49656 | 38469 ft | 443 kts | 16° |
| 2026-04-23 01:40 | 35.83529 | -77.48334 | 38148 ft | 435 kts | 16° |
| 2026-04-23 01:40 | 35.86343 | -77.47019 | 37730 ft | 430 kts | 16° |
| 2026-04-23 01:40 | 35.89131 | -77.45729 | 37255 ft | 426 kts | 16° |
| 2026-04-23 01:40 | 35.91897 | -77.44463 | 36788 ft | 422 kts | 16° |
| 2026-04-23 01:41 | 35.94642 | -77.43209 | 36364 ft | 418 kts | 16° |
| 2026-04-23 01:41 | 35.97352 | -77.41976 | 35950 ft | 414 kts | 16° |
| 2026-04-23 01:41 | 36.00046 | -77.40753 | 35444 ft | 411 kts | 16° |
| 2026-04-23 01:41 | 36.02730 | -77.39535 | 34898 ft | 410 kts | 16° |
| 2026-04-23 01:42 | 36.05365 | -77.38338 | 34435 ft | 407 kts | 16° |
| 2026-04-23 01:42 | 36.08022 | -77.37131 | 33706 ft | 410 kts | 16° |
| 2026-04-23 01:42 | 36.10728 | -77.35902 | 32733 ft | 418 kts | 16° |
| 2026-04-23 01:42 | 36.13472 | -77.34654 | 31921 ft | 422 kts | 16° |
| 2026-04-23 01:43 | 36.16238 | -77.33394 | 31141 ft | 424 kts | 17° |
| 2026-04-23 01:43 | 36.19009 | -77.32128 | 30398 ft | 425 kts | 17° |
| 2026-04-23 01:43 | 36.21779 | -77.30861 | 29732 ft | 423 kts | 17° |
| 2026-04-23 01:43 | 36.24535 | -77.29599 | 29345 ft | 424 kts | 17° |
| 2026-04-23 01:44 | 36.27307 | -77.28331 | 29166 ft | 425 kts | 17° |
| 2026-04-23 01:44 | 36.30067 | -77.27065 | 29096 ft | 421 kts | 16° |
| 2026-04-23 01:44 | 36.35512 | -77.24566 | 29092 ft | 421 kts | 16° |
| 2026-04-23 01:45 | 36.41118 | -77.22000 | 29109 ft | 444 kts | 16° |
| 2026-04-23 01:45 | 36.44065 | -77.20651 | 29105 ft | 458 kts | 17° |
| 2026-04-23 01:45 | 36.47096 | -77.19261 | 29104 ft | 470 kts | 17° |
| 2026-04-23 01:46 | 36.53345 | -77.16380 | 29101 ft | 486 kts | 17° |
| 2026-04-23 01:46 | 36.59656 | -77.13459 | 29087 ft | 485 kts | 17° |
| 2026-04-23 01:47 | 36.65969 | -77.10534 | 29092 ft | 484 kts | 17° |
| 2026-04-23 01:47 | 36.72273 | -77.07613 | 29087 ft | 484 kts | 17° |
| 2026-04-23 01:48 | 36.78585 | -77.04686 | 29082 ft | 484 kts | 17° |
| 2026-04-23 01:48 | 36.84880 | -77.01758 | 29072 ft | 476 kts | 17° |
| 2026-04-23 01:49 | 36.87898 | -77.00350 | 29062 ft | 462 kts | 17° |
| 2026-04-23 01:49 | 36.90874 | -76.98960 | 29068 ft | 454 kts | 17° |
| 2026-04-23 01:49 | 36.96782 | -76.96209 | 29068 ft | 454 kts | 16° |
| 2026-04-23 01:50 | 37.02696 | -76.93450 | 29067 ft | 454 kts | 17° |
| 2026-04-23 01:50 | 37.08619 | -76.90682 | 29063 ft | 454 kts | 17° |
| 2026-04-23 01:51 | 37.11542 | -76.89313 | 28896 ft | 455 kts | 17° |
| 2026-04-23 01:51 | 37.14498 | -76.87926 | 28648 ft | 452 kts | 17° |
| 2026-04-23 01:51 | 37.17435 | -76.86546 | 28393 ft | 450 kts | 16° |
| 2026-04-23 01:51 | 37.20363 | -76.85171 | 28134 ft | 448 kts | 16° |
| 2026-04-23 01:52 | 37.23284 | -76.83799 | 27890 ft | 448 kts | 16° |
| 2026-04-23 01:52 | 37.26203 | -76.82424 | 27648 ft | 447 kts | 16° |
| 2026-04-23 01:52 | 37.29107 | -76.81055 | 27369 ft | 445 kts | 16° |
| 2026-04-23 01:52 | 37.31998 | -76.79692 | 27052 ft | 442 kts | 16° |
| 2026-04-23 01:53 | 37.34878 | -76.78335 | 26667 ft | 442 kts | 16° |
| 2026-04-23 01:53 | 37.37755 | -76.76979 | 26310 ft | 441 kts | 16° |
| 2026-04-23 01:53 | 37.40618 | -76.75626 | 25938 ft | 439 kts | 16° |
| 2026-04-23 01:53 | 37.43476 | -76.74274 | 25230 ft | 437 kts | 16° |
| 2026-04-23 01:54 | 37.46259 | -76.72956 | 24543 ft | 431 kts | 16° |
| 2026-04-23 01:54 | 37.49046 | -76.71634 | 23849 ft | 426 kts | 16° |
| 2026-04-23 01:54 | 37.51805 | -76.70365 | 23164 ft | 418 kts | 12° |
| 2026-04-23 01:54 | 37.54604 | -76.69797 | 22474 ft | 399 kts | 355° |
| 2026-04-23 01:55 | 37.57337 | -76.69940 | 21850 ft | 389 kts | 354° |
| 2026-04-23 01:55 | 37.60034 | -76.70024 | 21224 ft | 387 kts | 355° |
| 2026-04-23 01:55 | 37.62717 | -76.70057 | 20596 ft | 384 kts | 356° |
| 2026-04-23 01:55 | 37.65378 | -76.70070 | 19966 ft | 381 kts | 356° |
| 2026-04-23 01:56 | 37.68017 | -76.70078 | 19329 ft | 378 kts | 356° |
| 2026-04-23 01:56 | 37.70600 | -76.70085 | 18734 ft | 375 kts | 356° |
| 2026-04-23 01:56 | 37.73194 | -76.70093 | 18124 ft | 372 kts | 356° |
| 2026-04-23 01:56 | 37.75773 | -76.70105 | 17524 ft | 370 kts | 356° |
| 2026-04-23 01:57 | 37.78343 | -76.70116 | 16921 ft | 367 kts | 356° |
| 2026-04-23 01:57 | 37.80882 | -76.70127 | 16331 ft | 364 kts | 356° |
| 2026-04-23 01:57 | 37.83407 | -76.70140 | 15749 ft | 362 kts | 356° |
| 2026-04-23 01:57 | 37.85916 | -76.70153 | 15171 ft | 359 kts | 356° |
| 2026-04-23 01:58 | 37.88374 | -76.70164 | 14609 ft | 357 kts | 356° |
| 2026-04-23 01:58 | 37.90844 | -76.70175 | 14047 ft | 355 kts | 356° |
| 2026-04-23 01:58 | 37.93305 | -76.70187 | 13486 ft | 352 kts | 356° |
| 2026-04-23 01:58 | 37.95749 | -76.70194 | 12975 ft | 349 kts | 357° |
| 2026-04-23 01:59 | 37.98185 | -76.70083 | 12617 ft | 355 kts | 359° |
| 2026-04-23 01:59 | 38.00675 | -76.69895 | 12238 ft | 361 kts | 0° |
| 2026-04-23 01:59 | 38.03135 | -76.69691 | 11884 ft | 337 kts | 0° |
| 2026-04-23 01:59 | 38.05351 | -76.69504 | 11514 ft | 301 kts | 360° |
| 2026-04-23 02:00 | 38.07321 | -76.69348 | 11216 ft | 278 kts | 359° |
| 2026-04-23 02:00 | 38.09229 | -76.69207 | 10951 ft | 275 kts | 359° |
| 2026-04-23 02:00 | 38.11134 | -76.69074 | 10658 ft | 274 kts | 359° |
| 2026-04-23 02:00 | 38.13025 | -76.68940 | 10396 ft | 269 kts | 359° |
| 2026-04-23 02:01 | 38.14885 | -76.68808 | 10120 ft | 266 kts | 359° |
| 2026-04-23 02:01 | 38.16727 | -76.68677 | 9850 ft | 263 kts | 358° |
| 2026-04-23 02:01 | 38.18550 | -76.68548 | 9582 ft | 262 kts | 359° |
| 2026-04-23 02:01 | 38.20372 | -76.68418 | 9322 ft | 264 kts | 359° |
| 2026-04-23 02:02 | 38.22219 | -76.68290 | 9061 ft | 267 kts | 359° |
| 2026-04-23 02:02 | 38.24036 | -76.68028 | 8978 ft | 267 kts | 5° |
| 2026-04-23 02:02 | 38.25857 | -76.67599 | 8890 ft | 266 kts | 6° |
| 2026-04-23 02:02 | 38.27673 | -76.67143 | 8807 ft | 265 kts | 6° |
| 2026-04-23 02:03 | 38.29465 | -76.66700 | 8735 ft | 263 kts | 6° |
| 2026-04-23 02:03 | 38.31280 | -76.66262 | 8666 ft | 267 kts | 6° |
| 2026-04-23 02:03 | 38.33121 | -76.65826 | 8600 ft | 270 kts | 6° |
| 2026-04-23 02:03 | 38.34963 | -76.65391 | 8519 ft | 269 kts | 6° |
| 2026-04-23 02:04 | 38.36798 | -76.64960 | 8445 ft | 267 kts | 5° |
| 2026-04-23 02:04 | 38.38621 | -76.64532 | 8373 ft | 266 kts | 5° |
| 2026-04-23 02:04 | 38.40415 | -76.64111 | 8301 ft | 266 kts | 6° |
| 2026-04-23 02:04 | 38.42226 | -76.63688 | 8226 ft | 264 kts | 5° |
| 2026-04-23 02:05 | 38.44035 | -76.63268 | 8155 ft | 263 kts | 5° |
| 2026-04-23 02:05 | 38.45836 | -76.62850 | 8087 ft | 263 kts | 6° |
| 2026-04-23 02:05 | 38.47635 | -76.62449 | 7993 ft | 261 kts | 2° |
| 2026-04-23 02:05 | 38.49440 | -76.62411 | 7780 ft | 258 kts | 352° |
| 2026-04-23 02:06 | 38.51234 | -76.62588 | 7432 ft | 258 kts | 351° |
| 2026-04-23 02:06 | 38.53024 | -76.62789 | 7105 ft | 258 kts | 351° |
| 2026-04-23 02:06 | 38.54803 | -76.62976 | 6798 ft | 256 kts | 351° |
| 2026-04-23 02:06 | 38.56552 | -76.63149 | 6488 ft | 256 kts | 351° |
| 2026-04-23 02:07 | 38.58319 | -76.63316 | 6194 ft | 254 kts | 352° |
| 2026-04-23 02:07 | 38.60082 | -76.63473 | 5881 ft | 253 kts | 352° |
| 2026-04-23 02:07 | 38.61835 | -76.63625 | 5556 ft | 253 kts | 352° |
| 2026-04-23 02:07 | 38.63590 | -76.63776 | 5220 ft | 253 kts | 352° |
| 2026-04-23 02:08 | 38.65340 | -76.63923 | 5071 ft | 248 kts | 352° |
| 2026-04-23 02:08 | 38.67066 | -76.64071 | 5029 ft | 250 kts | 352° |
| 2026-04-23 02:08 | 38.68791 | -76.64219 | 5024 ft | 254 kts | 352° |
| 2026-04-23 02:08 | 38.70586 | -76.64372 | 5027 ft | 256 kts | 352° |
| 2026-04-23 02:09 | 38.72355 | -76.64521 | 5024 ft | 254 kts | 352° |
| 2026-04-23 02:09 | 38.74091 | -76.64670 | 5016 ft | 253 kts | 352° |
| 2026-04-23 02:09 | 38.75846 | -76.64819 | 5017 ft | 252 kts | 352° |
| 2026-04-23 02:09 | 38.77582 | -76.64970 | 5016 ft | 251 kts | 352° |
| 2026-04-23 02:10 | 38.79329 | -76.65118 | 5016 ft | 251 kts | 352° |
| 2026-04-23 02:10 | 38.81075 | -76.65267 | 4925 ft | 253 kts | 352° |
| 2026-04-23 02:10 | 38.82815 | -76.65545 | 4657 ft | 250 kts | 339° |
| 2026-04-23 02:10 | 38.84367 | -76.66508 | 4410 ft | 247 kts | 328° |
| 2026-04-23 02:11 | 38.85886 | -76.67553 | 4169 ft | 247 kts | 330° |
| 2026-04-23 02:11 | 38.87410 | -76.68543 | 3902 ft | 244 kts | 331° |
| 2026-04-23 02:11 | 38.88908 | -76.69503 | 3629 ft | 234 kts | 330° |
| 2026-04-23 02:11 | 38.90303 | -76.70398 | 3360 ft | 222 kts | 330° |
| 2026-04-23 02:12 | 38.91645 | -76.71260 | 3086 ft | 209 kts | 328° |
| 2026-04-23 02:12 | 38.92652 | -76.72469 | 2767 ft | 193 kts | 293° |
| 2026-04-23 02:12 | 38.92927 | -76.74069 | 2505 ft | 179 kts | 270° |
| 2026-04-23 02:12 | 38.92811 | -76.75616 | 2331 ft | 170 kts | 259° |
| 2026-04-23 02:13 | 38.92592 | -76.77110 | 2148 ft | 168 kts | 258° |
| 2026-04-23 02:13 | 38.92369 | -76.78588 | 2086 ft | 173 kts | 257° |
| 2026-04-23 02:13 | 38.92133 | -76.80139 | 2055 ft | 179 kts | 257° |
| 2026-04-23 02:13 | 38.91897 | -76.81698 | 2015 ft | 176 kts | 258° |
| 2026-04-23 02:14 | 38.91672 | -76.83184 | 2027 ft | 168 kts | 257° |
| 2026-04-23 02:14 | 38.91452 | -76.84647 | 2042 ft | 164 kts | 257° |
| 2026-04-23 02:14 | 38.91091 | -76.86014 | 1986 ft | 159 kts | 232° |
| 2026-04-23 02:14 | 38.90201 | -76.86684 | 1811 ft | 146 kts | 191° |
| 2026-04-23 02:15 | 38.88271 | -76.87105 | 1462 ft | 137 kts | 183° |
| 2026-04-23 02:15 | 38.87334 | -76.87090 | 1297 ft | 137 kts | 180° |
| 2026-04-23 02:15 | 38.86381 | -76.87081 | 1103 ft | 136 kts | 181° |
| 2026-04-23 02:16 | 38.85434 | -76.87076 | 930 ft | 136 kts | 181° |
| 2026-04-23 02:16 | 38.84481 | -76.87074 | 743 ft | 139 kts | 180° |
| 2026-04-23 02:16 | 38.83517 | -76.87070 | 567 ft | 138 kts | 180° |
| 2026-04-23 02:16 | 38.82558 | -76.87067 | 377 ft | 138 kts | 180° |
| 2026-04-23 02:17 | 38.81625 | -76.87065 | 294 ft | 124 kts | 180° |
| 2026-04-23 02:17 | 38.80884 | -76.87065 | 286 ft | 85 kts | 180° |
| 2026-04-23 02:17 | 38.80433 | -76.87075 | 282 ft | 56 kts | 186° |
| 2026-04-23 02:17 | 38.80174 | -76.87211 | 278 ft | 24 kts | 210° |
| 2026-04-23 02:18 | 38.80042 | -76.87322 | 276 ft | 16 kts | 227° |
| 2026-04-23 02:18 | 38.80040 | -76.87432 | 277 ft | 14 kts | 330° |
| 2026-04-23 02:18 | 38.80139 | -76.87444 | 277 ft | 14 kts | 359° |
| 2026-04-23 02:18 | 38.80234 | -76.87445 | 278 ft | 8 kts | 359° |
| 2026-04-23 02:19 | 38.80312 | -76.87445 | 279 ft | 18 kts | 0° |
| 2026-04-23 02:19 | 38.80424 | -76.87448 | 280 ft | 15 kts | 345° |
| 2026-04-23 02:19 | 38.80453 | -76.87562 | 280 ft | 14 kts | 271° |
| 2026-04-23 02:19 | 38.80484 | -76.87638 | 280 ft | 10 kts | 343° |
| 2026-04-23 02:20 | 38.80555 | -76.87647 | 284 ft | 10 kts | 2° |